Time;durP1;ratioP1;P1;durP2;ratioP2;P2;SDS_P1;SDS_P2;PMS_P1;PMS_P2;Temp;Humidity;BMP_temperature;BMP_pressure;BME280_temperature;BME280_humidity;BME280_pressure;Samples;Min_cycle;Max_cycle;Signal;HPM_P1;HPM_P2
2021/11/07 00:02:31;;;;;;;36.95;19.67;;;;;;;16.61;100.00;101569.66;5072846;28;20352;-54
2021/11/07 00:05:02;;;;;;;24.20;17.00;;;;;;;16.27;100.00;101560.91;5073352;28;20049;-57
2021/11/07 00:10:08;;;;;;;31.87;18.67;;;;;;;17.34;100.00;101562.84;5073484;28;20273;-58
2021/11/07 00:12:40;;;;;;;45.00;20.20;;;;;;;16.68;100.00;101558.78;5072159;28;20266;-58
2021/11/07 00:15:06;;;;;;;32.53;20.23;;;;;;;16.61;100.00;101562.38;5072807;28;20325;-58
2021/11/07 00:17:33;;;;;;;27.50;18.45;;;;;;;16.98;100.00;101561.72;5072503;28;20277;-57
2021/11/07 00:20:15;;;;;;;34.20;21.47;;;;;;;17.65;100.00;101552.13;5072566;28;20041;-57
2021/11/07 00:22:57;;;;;;;33.87;19.87;;;;;;;16.97;100.00;101540.31;5072557;28;20729;-57
2021/11/07 00:25:39;;;;;;;35.80;21.03;;;;;;;17.26;100.00;101546.91;5072592;28;20281;-57
2021/11/07 00:28:09;;;;;;;38.17;22.60;;;;;;;17.00;100.00;101538.00;5072326;28;20347;-56
2021/11/07 00:30:47;;;;;;;30.67;20.50;;;;;;;17.20;100.00;101535.13;5071030;28;20262;-57
2021/11/07 00:39:35;;;;;;;32.30;19.23;;;;;;;17.00;100.00;101529.88;5051552;28;20439;-56
2021/11/07 00:44:05;;;;;;;33.27;21.37;;;;;;;16.70;100.00;101525.13;5052129;28;20278;-58
2021/11/07 00:46:55;;;;;;;31.30;20.77;;;;;;;17.00;100.00;101535.28;5051584;28;20286;-56
2021/11/07 00:49:25;;;;;;;34.00;21.50;;;;;;;17.00;100.00;101531.78;5052415;28;20780;-56
2021/11/07 01:00:20;;;;;;;39.53;20.67;;;;;;;17.33;100.00;101527.91;5047627;28;20293;-58
2021/11/07 01:02:47;;;;;;;37.30;21.60;;;;;;;17.35;100.00;101509.59;5051843;28;20274;-56
2021/11/07 01:05:24;;;;;;;32.37;18.53;;;;;;;17.19;100.00;101514.56;5050846;28;20625;-55
2021/11/07 01:07:50;;;;;;;39.93;22.17;;;;;;;17.34;100.00;101506.09;5052005;28;20733;-56
2021/11/07 01:10:16;;;;;;;35.27;20.07;;;;;;;17.03;100.00;101513.22;5051945;28;20276;-58
2021/11/07 01:12:42;;;;;;;37.00;20.77;;;;;;;17.43;100.00;101500.38;5051597;28;20480;-55
2021/11/07 01:15:08;;;;;;;36.83;21.15;;;;;;;17.70;100.00;101489.22;5051830;28;20045;-59
2021/11/07 01:17:34;;;;;;;;;;;;;;;17.86;100.00;101496.72;5051974;28;20123;-57
2021/11/07 01:20:00;;;;;;;34.30;19.63;;;;;;;17.14;100.00;101500.06;5051991;28;20384;-58
2021/11/07 01:25:07;;;;;;;42.80;21.50;;;;;;;17.28;100.00;101498.03;5050634;28;20501;-57
2021/11/07 01:27:39;;;;;;;;;;;;;;;17.15;100.00;101485.50;5052177;28;20326;-57
2021/11/07 01:30:16;;;;;;;38.60;19.73;;;;;;;17.43;100.00;101484.13;5051836;28;19916;-56
2021/11/07 01:32:48;;;;;;;38.83;20.03;;;;;;;17.54;100.00;101483.41;5051677;28;20270;-57
2021/11/07 01:35:40;;;;;;;42.00;21.63;;;;;;;17.80;100.00;101473.28;5050129;28;20766;-55
2021/11/07 01:40:39;;;;;;;40.93;21.23;;;;;;;17.60;100.00;101451.91;5050313;28;20318;-57
2021/11/07 01:43:04;;;;;;;38.17;19.77;;;;;;;17.48;100.00;101441.88;5050534;28;20340;-57
2021/11/07 01:45:50;;;;;;;50.90;21.85;;;;;;;17.84;100.00;101452.00;5051327;28;20274;-56
2021/11/07 01:48:19;;;;;;;53.73;21.00;;;;;;;17.54;100.00;101442.84;5052676;28;20147;-58
2021/11/07 01:50:52;;;;;;;48.87;20.33;;;;;;;17.58;100.00;101441.31;5055281;28;20262;-56
2021/11/07 01:53:30;;;;;;;46.50;22.53;;;;;;;17.88;100.00;101436.97;5055944;28;20274;-54
2021/11/07 01:56:03;;;;;;;41.97;21.30;;;;;;;17.23;100.00;101447.34;5056076;28;20295;-55
2021/11/07 01:58:30;;;;;;;52.23;23.97;;;;;;;17.57;100.00;101447.78;5055329;28;20347;-55
2021/11/07 02:00:57;;;;;;;49.27;23.13;;;;;;;17.33;100.00;101426.03;5055917;28;20281;-56
2021/11/07 02:03:24;;;;;;;59.42;25.08;;;;;;;18.01;100.00;101442.22;5054246;28;20269;-54
2021/11/07 02:05:49;;;;;;;46.87;24.37;;;;;;;17.81;100.00;101431.66;5055018;28;20898;-53
2021/11/07 02:08:18;;;;;;;53.95;25.40;;;;;;;17.67;100.00;101405.84;5055196;28;20265;-53
2021/11/07 02:10:44;;;;;;;53.17;23.87;;;;;;;17.37;100.00;101420.16;5055278;28;20041;-58
2021/11/07 02:13:09;;;;;;;55.83;24.30;;;;;;;18.05;100.00;101415.53;5037176;28;20357;-55
2021/11/07 02:15:35;;;;;;;49.30;22.60;;;;;;;17.80;100.00;101397.56;5054753;28;20056;-52
2021/11/07 02:18:01;;;;;;;52.17;24.25;;;;;;;17.72;100.00;101405.97;5055714;28;20045;-51
2021/11/07 02:20:30;;;;;;;55.50;22.95;;;;;;;17.48;100.00;101422.09;5053728;28;20051;-55
2021/11/07 02:22:57;;;;;;;57.67;24.60;;;;;;;18.04;100.00;101397.66;5054852;28;20138;-53
2021/11/07 02:25:23;;;;;;;31.63;16.97;;;;;;;17.42;100.00;101404.09;5070458;28;20661;-54
2021/11/07 02:27:48;;;;;;;56.50;25.25;;;;;;;17.98;100.00;101401.22;5053542;28;20277;-52
2021/11/07 02:30:15;;;;;;;48.63;23.63;;;;;;;18.32;100.00;101388.03;5054827;28;20091;-51
2021/11/07 02:32:46;;;;;;;48.77;23.30;;;;;;;17.88;100.00;101388.28;5054580;28;20036;-50
2021/11/07 02:35:12;;;;;;;59.60;23.03;;;;;;;18.12;100.00;101400.00;5054934;28;20289;-54
2021/11/07 02:37:39;;;;;;;55.53;23.88;;;;;;;18.13;100.00;101385.41;5056759;28;20309;-51
2021/11/07 02:40:07;;;;;;;49.22;22.67;;;;;;;17.96;100.00;101384.41;5067137;28;20481;-51
2021/11/07 02:42:34;;;;;;;52.70;22.73;;;;;;;17.98;100.00;101385.84;5074177;28;20067;-52
2021/11/07 02:45:00;;;;;;;65.97;22.70;;;;;;;18.08;100.00;101384.47;5074702;28;20269;-53
2021/11/07 02:47:26;;;;;;;60.13;22.75;;;;;;;18.29;100.00;101383.91;5073634;28;20353;-52
2021/11/07 02:49:52;;;;;;;54.10;22.42;;;;;;;18.46;100.00;101381.34;5074640;28;20040;-55
2021/11/07 02:52:17;;;;;;;69.60;23.43;;;;;;;17.96;100.00;101387.09;5074579;28;20045;-56
2021/11/07 02:54:43;;;;;;;49.00;22.50;;;;;;;18.16;100.00;101384.94;5056113;28;20357;-54
2021/11/07 02:57:13;;;;;;;50.03;21.52;;;;;;;18.26;100.00;101378.16;5056901;28;20770;-54
2021/11/07 02:59:41;;;;;;;59.23;21.73;;;;;;;17.86;100.00;101366.03;5056027;28;20057;-55
2021/11/07 03:02:09;;;;;;;52.67;21.47;;;;;;;17.82;100.00;101364.84;5090397;28;20730;-55
2021/11/07 03:04:36;;;;;;;47.93;21.90;;;;;;;18.12;100.00;101361.31;5055477;28;20327;-55
2021/11/07 03:07:02;;;;;;;;;;;;;;;17.85;100.00;101351.69;5055261;28;20278;-53
2021/11/07 03:09:32;;;;;;;53.57;21.60;;;;;;;18.36;100.00;101347.78;5056801;28;19974;-55
2021/11/07 03:11:59;;;;;;;51.27;21.50;;;;;;;18.17;100.00;101359.53;5054482;28;20282;-54
2021/11/07 03:14:30;;;;;;;57.13;24.30;;;;;;;18.09;100.00;101359.88;5054869;28;20326;-54
2021/11/07 03:16:56;;;;;;;54.93;25.43;;;;;;;18.23;100.00;101365.91;5054634;28;20274;-60
2021/11/07 03:19:24;;;;;;;52.40;24.05;;;;;;;18.32;100.00;101360.97;5055000;28;20266;-54
2021/11/07 03:21:53;;;;;;;46.60;22.47;;;;;;;18.11;100.00;101362.38;5052921;28;20067;-55
2021/11/07 03:24:19;;;;;;;58.47;25.03;;;;;;;18.64;100.00;101355.16;5086393;28;20277;-55
2021/11/07 03:26:46;;;;;;;59.78;25.20;;;;;;;18.16;100.00;101352.47;5053866;28;20293;-56
2021/11/07 03:29:12;;;;;;;56.97;25.53;;;;;;;18.35;100.00;101363.19;5053961;28;20546;-54
2021/11/07 03:34:35;;;;;;;63.60;23.63;;;;;;;18.23;100.00;101335.31;5052304;28;19920;-53
2021/11/07 03:37:05;;;;;;;44.27;19.23;;;;;;;18.20;100.00;101348.22;5053378;28;20266;-54
2021/11/07 03:39:34;;;;;;;62.00;22.67;;;;;;;18.66;100.00;101347.63;5053928;28;20048;-55
2021/11/07 03:42:01;;;;;;;47.87;22.47;;;;;;;18.55;100.00;101349.28;5053382;28;20288;-54
2021/11/07 03:44:27;;;;;;;54.37;22.67;;;;;;;18.62;100.00;101346.47;5053177;28;20292;-52
2021/11/07 03:46:54;;;;;;;48.40;19.93;;;;;;;18.38;100.00;101338.34;5052929;28;20754;-53
2021/11/07 03:49:21;;;;;;;49.13;20.60;;;;;;;18.60;100.00;101345.88;5053078;28;20289;-51
2021/11/07 03:51:46;;;;;;;;;;;;;;;18.57;100.00;101339.06;5052974;28;20606;-52
2021/11/07 03:54:13;;;;;;;58.43;22.80;;;;;;;18.54;100.00;101323.25;5053162;28;20012;-55
2021/11/07 03:56:39;;;;;;;48.47;20.87;;;;;;;18.74;100.00;101313.94;5051713;28;20373;-54
2021/11/07 03:59:05;;;;;;;62.35;24.38;;;;;;;18.71;100.00;101327.97;5052866;28;20258;-56
2021/11/07 04:01:32;;;;;;;49.78;23.55;;;;;;;18.49;100.00;101317.75;5051892;28;20045;-55
2021/11/07 04:03:58;;;;;;;49.03;21.00;;;;;;;18.44;100.00;101315.72;5053076;28;20041;-56
2021/11/07 04:06:24;;;;;;;60.33;20.70;;;;;;;19.04;100.00;101321.09;5052636;28;20427;-55
2021/11/07 04:08:50;;;;;;;69.38;21.45;;;;;;;18.84;100.00;101335.00;5052482;28;20069;-54
2021/11/07 04:11:15;;;;;;;53.70;22.00;;;;;;;19.30;100.00;101337.84;5052291;28;20091;-54
2021/11/07 04:13:41;;;;;;;56.40;20.00;;;;;;;19.47;100.00;101329.75;5052532;28;20076;-55
2021/11/07 04:16:09;;;;;;;63.33;20.92;;;;;;;19.51;100.00;101336.34;5052370;28;20041;-56
2021/11/07 04:18:36;;;;;;;49.63;19.43;;;;;;;19.96;100.00;101336.59;5051719;28;20045;-56
2021/11/07 04:21:02;;;;;;;52.43;18.83;;;;;;;19.52;100.00;101337.16;5052319;28;20270;-56
2021/11/07 04:23:29;;;;;;;46.97;18.17;;;;;;;19.11;100.00;101337.19;5052615;28;20278;-58
2021/11/07 04:25:54;;;;;;;42.00;14.27;;;;;;;18.97;100.00;101332.03;5034607;28;20776;-55
2021/11/07 04:28:21;;;;;;;51.00;16.17;;;;;;;19.52;100.00;101337.97;5052354;28;20041;-56
2021/11/07 04:30:46;;;;;;;41.65;13.30;;;;;;;19.23;100.00;101329.84;5034379;28;20052;-57
2021/11/07 04:33:14;;;;;;;41.35;14.63;;;;;;;18.95;100.00;101331.47;5050926;28;20412;-55
2021/11/07 04:35:39;;;;;;;41.13;14.03;;;;;;;18.77;100.00;101325.13;5052572;28;20362;-56
2021/11/07 04:38:06;;;;;;;43.38;13.10;;;;;;;19.29;100.00;101333.50;5061590;28;20346;-56
2021/11/07 04:40:32;;;;;;;37.40;12.13;;;;;;;19.45;100.00;101335.41;5070054;28;20377;-56
2021/11/07 04:42:57;;;;;;;35.65;10.95;;;;;;;19.27;100.00;101333.72;5071948;28;20280;-56
2021/11/07 04:45:23;;;;;;;34.60;9.02;;;;;;;18.85;100.00;101332.06;5072479;28;20040;-55
2021/11/07 04:47:49;;;;;;;33.63;7.57;;;;;;;18.59;100.00;101347.78;5072569;28;20536;-54
2021/11/07 04:50:18;;;;;;;34.72;7.35;;;;;;;18.67;100.00;101333.03;5072467;28;20427;-56
2021/11/07 04:52:45;;;;;;;31.00;7.50;;;;;;;18.93;100.00;101322.75;5071955;28;20028;-53
2021/11/07 04:55:11;;;;;;;20.70;7.33;;;;;;;18.64;100.00;101330.78;5070886;28;20373;-54
2021/11/07 04:57:43;;;;;;;25.67;6.85;;;;;;;18.78;100.00;101353.03;5072162;28;20276;-54
2021/11/07 05:00:21;;;;;;;36.03;7.40;;;;;;;19.18;100.00;101343.31;5072102;28;20028;-52
2021/11/07 05:02:48;;;;;;;24.53;5.60;;;;;;;18.89;100.00;101326.97;5071190;28;20265;-54
2021/11/07 05:05:16;;;;;;;34.73;6.33;;;;;;;18.61;100.00;101350.22;5072087;28;20268;-55
2021/11/07 05:07:42;;;;;;;30.87;5.60;;;;;;;17.94;100.00;101326.97;5070803;28;20422;-53
2021/11/07 05:10:08;;;;;;;31.20;5.07;;;;;;;18.18;100.00;101325.97;5071809;28;20288;-55
2021/11/07 05:12:34;;;;;;;25.80;4.30;;;;;;;18.08;100.00;101333.88;5072196;28;20040;-55
2021/11/07 05:14:59;;;;;;;36.40;5.25;;;;;;;17.97;100.00;101334.63;5071995;28;20464;-55
2021/11/07 05:17:25;;;;;;;27.97;5.07;;;;;;;18.04;100.00;101335.41;5071880;28;20066;-56
2021/11/07 05:19:51;;;;;;;19.33;4.55;;;;;;;17.81;100.00;101322.63;5072203;28;20034;-56
2021/11/07 05:22:17;;;;;;;37.92;4.47;;;;;;;17.80;100.00;101332.63;5072316;28;20468;-54
2021/11/07 05:24:42;;;;;;;33.20;4.78;;;;;;;18.36;100.00;101329.66;5075811;28;20036;-53
2021/11/07 05:27:08;;;;;;;38.17;4.83;;;;;;;18.52;100.00;101335.41;5075940;28;20140;-54
2021/11/07 05:29:34;;;;;;;27.80;4.82;;;;;;;18.51;100.00;101339.19;5075552;28;20040;-54
2021/11/07 05:32:00;;;;;;;34.10;5.43;;;;;;;18.00;100.00;101339.59;5075887;28;20086;-54
2021/11/07 05:34:27;;;;;;;25.70;4.95;;;;;;;18.28;100.00;101336.22;5075420;28;20110;-53
2021/11/07 05:36:54;;;;;;;55.50;6.03;;;;;;;18.23;100.00;101346.13;5075905;28;20041;-56
2021/11/07 05:39:20;;;;;;;31.93;5.43;;;;;;;18.18;100.00;101350.34;5075566;28;20269;-56
2021/11/07 05:41:47;;;;;;;23.60;5.17;;;;;;;18.20;100.00;101350.94;5075535;28;20760;-56
2021/11/07 05:44:14;;;;;;;33.87;5.53;;;;;;;18.14;100.00;101354.59;5075259;28;20460;-56
2021/11/07 05:46:40;;;;;;;38.55;5.45;;;;;;;18.25;100.00;101349.44;5075614;28;20397;-56
2021/11/07 05:49:06;;;;;;;28.83;5.57;;;;;;;18.60;100.00;101354.00;5075220;28;20048;-54
2021/11/07 05:51:31;;;;;;;28.25;5.43;;;;;;;18.34;100.00;101353.41;5057665;28;20078;-56
2021/11/07 05:53:57;;;;;;;29.02;5.75;;;;;;;18.40;100.00;101355.19;5073920;28;20041;-54
2021/11/07 05:56:23;;;;;;;26.02;4.95;;;;;;;18.51;100.00;101347.31;5075601;28;20043;-56
2021/11/07 05:58:48;;;;;;;24.20;4.38;;;;;;;18.39;100.00;101356.25;5075524;28;20040;-57
2021/11/07 06:01:14;;;;;;;30.63;4.60;;;;;;;18.23;100.00;101351.56;5074039;28;20469;-57
2021/11/07 06:03:39;;;;;;;16.23;3.67;;;;;;;17.85;100.00;101356.25;5075702;28;20059;-54
2021/11/07 06:06:05;;;;;;;22.08;4.20;;;;;;;17.89;100.00;101350.16;5075194;28;20618;-55
2021/11/07 06:08:31;;;;;;;28.70;5.03;;;;;;;18.36;100.00;101348.59;5073774;28;20072;-54
2021/11/07 06:10:57;;;;;;;31.13;5.15;;;;;;;18.12;100.00;101343.16;5074800;28;20051;-56
2021/11/07 06:13:23;;;;;;;21.60;3.87;;;;;;;17.89;100.00;101352.88;5075218;28;20033;-54
2021/11/07 06:15:49;;;;;;;25.23;4.22;;;;;;;17.74;100.00;101352.47;5057008;28;20622;-56
2021/11/07 06:18:14;;;;;;;22.87;5.63;;;;;;;17.76;100.00;101355.75;5073817;28;20037;-56
2021/11/07 06:20:40;;;;;;;24.00;3.80;;;;;;;17.87;100.00;101360.38;5075535;28;20272;-56
2021/11/07 06:23:05;;;;;;;18.73;3.90;;;;;;;17.54;100.00;101369.81;5075275;28;20056;-56
2021/11/07 06:25:32;;;;;;;22.17;2.67;;;;;;;17.85;100.00;101367.91;5075126;28;20265;-56
2021/11/07 06:27:58;;;;;;;28.23;5.13;;;;;;;17.76;100.00;101370.13;5074378;28;20866;-55
2021/11/07 06:30:23;;;;;;;25.10;5.37;;;;;;;17.90;100.00;101375.34;5074915;28;20281;-56
2021/11/07 06:32:49;;;;;;;17.77;3.78;;;;;;;17.89;100.00;101373.69;5074713;28;20258;-56
2021/11/07 06:35:15;;;;;;;13.88;3.45;;;;;;;17.73;100.00;101377.88;5039048;28;20408;-56
2021/11/07 06:37:42;;;;;;;29.25;5.35;;;;;;;17.68;100.00;101375.03;5074506;28;20047;-55
2021/11/07 06:40:11;;;;;;;28.93;4.00;;;;;;;18.01;100.00;101385.38;5074427;28;20499;-57
2021/11/07 06:42:37;;;;;;;18.67;3.60;;;;;;;17.77;100.00;101376.38;5074368;28;20276;-57
2021/11/07 06:45:04;;;;;;;24.55;3.83;;;;;;;18.16;100.00;101379.53;5074228;28;20744;-56
2021/11/07 06:47:29;;;;;;;;;;;;;;;18.06;100.00;101384.72;5075037;28;20128;-56
2021/11/07 06:49:55;;;;;;;23.43;4.57;;;;;;;17.94;100.00;101384.66;5065806;28;19948;-55
2021/11/07 06:52:20;;;;;;;28.23;3.67;;;;;;;18.29;100.00;101380.38;5063339;28;20049;-56
2021/11/07 06:54:47;;;;;;;21.90;3.92;;;;;;;17.94;100.00;101386.50;5054197;28;20045;-56
2021/11/07 06:57:13;;;;;;;23.40;3.57;;;;;;;17.38;100.00;101383.97;5053009;28;20036;-56
2021/11/07 06:59:39;;;;;;;30.35;4.03;;;;;;;17.82;100.00;101389.19;5053000;28;20285;-56
2021/11/07 07:02:05;;;;;;;26.50;3.45;;;;;;;17.78;100.00;101391.56;5052778;28;20045;-54
2021/11/07 07:04:31;;;;;;;27.95;4.53;;;;;;;18.05;100.00;101393.88;5052813;28;20123;-56
2021/11/07 07:06:57;;;;;;;20.63;3.63;;;;;;;17.69;100.00;101393.75;5054060;28;20091;-55
2021/11/07 07:09:28;;;;;;;19.90;3.78;;;;;;;17.47;100.00;101396.09;5054399;28;20048;-57
2021/11/07 07:14:38;;;;;;;19.03;3.83;;;;;;;17.46;100.00;101395.31;5054322;28;20784;-57
2021/11/07 07:22:38;;;;;;;31.77;3.67;;;;;;;17.48;100.00;101400.47;5085890;28;20286;-57
2021/11/07 07:28:15;;;;;;;23.50;4.90;;;;;;;17.66;100.00;101405.03;5053663;28;20313;-57
2021/11/07 07:31:23;;;;;;;25.65;5.88;;;;;;;17.56;100.00;101408.28;5053925;28;20274;-56
2021/11/07 07:33:32;;;;;;;30.90;4.53;;;;;;;17.31;100.00;101400.28;5052968;28;20570;-56
2021/11/07 07:35:58;;;;;;;29.13;3.75;;;;;;;17.45;100.00;101401.75;5053930;28;20742;-57
2021/11/07 07:38:24;;;;;;;19.67;3.33;;;;;;;17.15;100.00;101405.22;5068892;28;20059;-56
2021/11/07 07:40:50;;;;;;;22.55;3.72;;;;;;;17.46;100.00;101403.41;5053709;28;20041;-57
2021/11/07 07:43:17;;;;;;;21.30;4.88;;;;;;;17.15;100.00;101399.00;5053615;28;20041;-55
2021/11/07 07:45:42;;;;;;;25.98;3.78;;;;;;;16.96;100.00;101403.56;5053256;28;20044;-57
2021/11/07 07:48:08;;;;;;;17.37;3.57;;;;;;;17.24;100.00;101404.94;5053106;28;20074;-56
2021/11/07 07:50:37;;;;;;;23.88;4.00;;;;;;;17.04;100.00;101408.69;5052382;28;20041;-56
2021/11/07 07:53:03;;;;;;;22.83;3.73;;;;;;;17.47;100.00;101410.47;5052230;28;20066;-56
2021/11/07 07:55:28;;;;;;;20.30;4.55;;;;;;;17.76;100.00;101417.97;5067464;28;20760;-57
2021/11/07 07:57:54;;;;;;;24.80;5.10;;;;;;;17.90;100.00;101422.16;5072980;28;20446;-57
2021/11/07 08:00:21;;;;;;;20.87;3.50;;;;;;;17.91;100.00;101425.69;5072658;28;20748;-56
2021/11/07 08:02:47;;;;;;;19.77;3.60;;;;;;;18.78;100.00;101420.75;5071546;28;20257;-56
2021/11/07 08:05:14;;;;;;;23.40;4.07;;;;;;;18.51;100.00;101423.13;5072596;28;20273;-57
2021/11/07 08:07:43;;;;;;;14.83;3.17;;;;;;;17.90;100.00;101424.84;5072985;28;20047;-56
2021/11/07 08:10:11;;;;;;;24.83;3.90;;;;;;;18.05;100.00;101418.25;5072358;28;20316;-55
2021/11/07 08:12:38;;;;;;;27.53;3.67;;;;;;;17.92;100.00;101419.22;5071461;28;20265;-58
2021/11/07 08:15:05;;;;;;;31.43;4.57;;;;;;;17.74;100.00;101431.75;5054788;28;20321;-57
2021/11/07 08:17:31;;;;;;;28.87;4.60;;;;;;;18.45;100.00;101428.44;5072631;28;20321;-57
2021/11/07 08:19:56;;;;;;;21.30;3.75;;;;;;;18.24;100.00;101429.81;5072507;28;20322;-56
2021/11/07 08:22:22;;;;;;;26.97;4.13;;;;;;;18.55;100.00;101435.16;5072550;28;20060;-56
2021/11/07 08:24:48;;;;;;;32.03;4.20;;;;;;;18.20;100.00;101442.16;5072758;28;20040;-57
2021/11/07 08:27:15;;;;;;;19.02;3.88;;;;;;;17.51;100.00;101437.84;5054671;28;20352;-56
2021/11/07 08:29:42;;;;;;;23.97;4.33;;;;;;;18.45;100.00;101424.88;5072399;28;20434;-58
2021/11/07 08:32:09;;;;;;;26.37;3.80;;;;;;;18.68;100.00;101434.09;5071231;28;20305;-58
2021/11/07 08:34:35;;;;;;;19.35;4.63;;;;;;;18.47;100.00;101426.31;5054410;28;20593;-57
2021/11/07 08:37:06;;;;;;;22.73;5.13;;;;;;;18.27;100.00;101423.09;5067116;28;20048;-57
2021/11/07 08:39:37;;;;;;;18.30;4.43;;;;;;;18.11;100.00;101435.44;5053433;28;20033;-57
2021/11/07 08:42:55;;;;;;;23.00;5.10;;;;;;;17.95;100.00;101426.03;5070700;28;20269;-56
2021/11/07 09:01:29;;;;;;;18.13;3.37;;;;;;;19.99;89.08;101440.06;5072020;28;20693;-55
2021/11/07 09:08:51;;;;;;;29.90;6.05;;;;;;;19.41;97.38;101436.50;5072195;28;20500;-57
2021/11/07 09:11:20;;;;;;;19.60;3.20;;;;;;;19.78;98.20;101444.25;5070777;28;20107;-56
2021/11/07 09:13:47;;;;;;;30.20;3.73;;;;;;;19.84;100.00;101440.59;5071083;28;20292;-58
2021/11/07 09:16:14;;;;;;;23.37;3.77;;;;;;;19.50;100.00;101443.19;5071521;28;20752;-56
2021/11/07 09:18:41;;;;;;;24.83;4.50;;;;;;;21.14;77.96;101443.47;5071216;28;20262;-58
2021/11/07 09:21:22;;;;;;;20.67;5.23;;;;;;;20.36;85.03;101441.50;5038172;28;20274;-58
2021/11/07 09:24:02;;;;;;;25.37;4.20;;;;;;;20.41;84.42;101438.03;5072061;28;20289;-57
2021/11/07 09:26:32;;;;;;;22.53;3.40;;;;;;;20.02;88.31;101444.16;5070872;28;20269;-57
2021/11/07 09:29:04;;;;;;;15.33;3.30;;;;;;;20.11;87.98;101437.28;5072297;28;20276;-57
2021/11/07 09:31:38;;;;;;;18.53;3.70;;;;;;;19.94;87.18;101444.56;5072067;28;20277;-59
2021/11/07 09:39:28;;;;;;;;;;;;;;;19.47;88.11;101447.19;5072402;28;20055;-58
2021/11/07 09:42:04;;;;;;;28.00;3.93;;;;;;;19.28;90.22;101449.25;5071965;28;19924;-58
2021/11/07 09:44:37;;;;;;;20.87;3.07;;;;;;;19.68;89.15;101453.03;5071905;28;20277;-58
2021/11/07 09:47:05;;;;;;;20.17;3.47;;;;;;;20.34;86.12;101465.38;5072272;28;20594;-58
2021/11/07 09:49:33;;;;;;;19.43;3.97;;;;;;;22.24;68.95;101457.16;5070403;28;20816;-57
2021/11/07 09:52:12;;;;;;;15.00;3.53;;;;;;;22.57;64.83;101449.84;5070541;28;20409;-59
2021/11/07 09:54:44;;;;;;;23.50;4.17;;;;;;;22.97;57.64;101457.72;5070923;28;20375;-58
2021/11/07 09:57:11;;;;;;;18.13;3.80;;;;;;;23.67;53.38;101453.94;5071953;28;20273;-58
2021/11/07 09:59:37;;;;;;;24.43;4.00;;;;;;;24.27;53.75;101462.50;5071664;28;20120;-58
2021/11/07 10:02:03;;;;;;;18.40;3.63;;;;;;;24.31;53.31;101468.25;5071878;28;20062;-58
2021/11/07 10:04:31;;;;;;;14.88;3.65;;;;;;;24.35;52.25;101458.41;5071354;28;20404;-59
2021/11/07 10:07:17;;;;;;;19.07;3.43;;;;;;;24.62;51.12;101465.47;5070423;28;20107;-57
2021/11/07 10:09:43;;;;;;;20.17;3.90;;;;;;;25.98;46.51;101464.72;5071839;28;20040;-59
2021/11/07 10:12:14;;;;;;;16.20;3.97;;;;;;;26.39;43.35;101463.59;5074008;28;20036;-58
2021/11/07 10:14:48;;;;;;;12.87;3.00;;;;;;;26.32;42.91;101463.91;5074954;28;20036;-59
2021/11/07 10:17:28;;;;;;;22.20;3.90;;;;;;;24.88;45.55;101470.94;5079132;28;20039;-58
2021/11/07 10:20:15;;;;;;;18.00;3.40;;;;;;;27.23;41.77;101478.09;5079096;28;20025;-58
2021/11/07 10:22:41;;;;;;;21.23;3.30;;;;;;;26.42;42.08;101475.91;5077403;28;20473;-56
2021/11/07 10:25:16;;;;;;;14.18;2.97;;;;;;;26.84;40.46;101471.63;5075745;28;20033;-59
2021/11/07 10:27:45;;;;;;;23.17;3.83;;;;;;;27.19;39.41;101472.38;5074797;28;20557;-59
2021/11/07 10:30:31;;;;;;;16.23;3.93;;;;;;;25.76;39.40;101465.13;5074848;28;20037;-58
2021/11/07 10:52:41;;;;;;;;;;;;;;;26.03;37.95;101463.84;5074594;28;20372;-58
2021/11/07 10:55:33;;;;;;;10.40;2.70;;;;;;;26.76;37.41;101470.38;5074208;28;20019;-58
2021/11/07 10:58:04;;;;;;;14.77;3.37;;;;;;;27.13;34.86;101475.47;5074563;28;20394;-57
2021/11/07 11:00:36;;;;;;;15.03;4.27;;;;;;;26.54;36.21;101448.91;5074569;28;20047;-59
2021/11/07 11:03:12;;;;;;;15.27;3.17;;;;;;;26.28;36.40;101449.16;5074090;28;20040;-57
2021/11/07 11:05:50;;;;;;;18.03;2.83;;;;;;;28.44;34.14;101468.66;5074083;28;20049;-58
2021/11/07 11:08:28;;;;;;;15.83;3.37;;;;;;;26.92;34.66;101451.00;5074071;28;20044;-59
2021/11/07 11:13:59;;;;;;;16.03;2.80;;;;;;;27.74;35.91;101456.56;5073886;28;20040;-58
2021/11/07 11:37:56;;;;;;;14.00;3.87;;;;;;;26.21;35.39;101445.94;5070714;28;20127;-58
2021/11/07 11:42:55;;;;;;;16.63;3.00;;;;;;;26.19;35.40;101448.16;5053508;28;20044;-59
2021/11/07 11:45:25;;;;;;;14.73;2.83;;;;;;;27.20;37.03;101454.78;5053213;28;20539;-58
2021/11/07 12:01:29;;;;;;;16.47;3.23;;;;;;;24.96;36.91;101428.50;5053600;28;20140;-59
2021/11/07 12:14:59;;;;;;;14.77;3.33;;;;;;;25.08;36.64;101415.34;5052880;28;20040;-55
2021/11/07 12:17:32;;;;;;;14.88;3.10;;;;;;;24.46;38.79;101415.47;5062951;28;20045;-59
2021/11/07 12:20:01;;;;;;;13.53;2.93;;;;;;;24.88;37.98;101414.31;5053370;28;20085;-59
2021/11/07 12:22:31;;;;;;;20.33;3.90;;;;;;;24.01;38.41;101409.75;5067821;28;20049;-60
2021/11/07 12:25:05;;;;;;;15.10;3.53;;;;;;;23.09;38.93;101424.78;5073704;28;20072;-60
2021/11/07 12:27:37;;;;;;;20.90;4.73;;;;;;;23.11;40.83;101414.44;5072461;28;20039;-58
2021/11/07 12:30:15;;;;;;;30.13;3.90;;;;;;;22.65;40.67;101417.72;5060884;28;20037;-60
2021/11/07 12:32:46;;;;;;;19.07;3.70;;;;;;;22.87;41.26;101425.78;5053468;28;20059;-59
2021/11/07 12:40:38;;;;;;;27.73;3.40;;;;;;;21.90;59.30;101436.44;5052687;28;20037;-58
2021/11/07 12:43:25;;;;;;;24.03;4.93;;;;;;;21.68;58.46;101427.50;5065050;28;20090;-58
2021/11/07 12:45:57;;;;;;;26.90;3.72;;;;;;;22.03;56.56;101432.50;5052388;28;20285;-59
2021/11/07 12:48:42;;;;;;;20.23;3.97;;;;;;;22.35;59.20;101425.38;5053031;28;20045;-59
2021/11/07 12:51:11;;;;;;;19.90;3.73;;;;;;;23.03;66.36;101441.09;5052427;28;20274;-58
2021/11/07 12:54:03;;;;;;;15.80;4.40;;;;;;;24.52;58.85;101441.72;5052860;28;20258;-58
2021/11/07 12:56:35;;;;;;;37.90;5.87;;;;;;;23.69;67.92;101447.13;5071311;28;20311;-58
2021/11/07 12:59:05;;;;;;;22.97;4.30;;;;;;;23.53;68.58;101439.97;5072455;28;20261;-59
2021/11/07 13:02:09;;;;;;;22.00;4.87;;;;;;;23.36;72.23;101442.94;5072212;28;20835;-58
2021/11/07 13:04:43;;;;;;;26.03;3.63;;;;;;;23.59;69.20;101445.19;5071395;28;20265;-59
2021/11/07 13:07:19;;;;;;;20.93;4.30;;;;;;;22.97;67.97;101444.91;5072919;28;20644;-59
2021/11/07 13:09:53;;;;;;;27.23;5.03;;;;;;;22.94;63.72;101437.25;5070847;28;20732;-58
2021/11/07 13:12:25;;;;;;;23.43;3.03;;;;;;;22.97;64.94;101436.72;5072992;28;20269;-58
2021/11/07 13:18:01;;;;;;;25.27;4.03;;;;;;;21.08;65.41;101439.03;5071221;28;20312;-59
2021/11/07 13:28:33;;;;;;;33.20;6.43;;;;;;;21.32;90.13;101450.50;5072567;28;20273;-58
2021/11/07 13:31:17;;;;;;;29.60;4.43;;;;;;;19.48;95.03;101456.97;5071259;28;20289;-59
2021/11/07 13:33:44;;;;;;;30.17;4.77;;;;;;;19.40;100.00;101457.34;5071154;28;20345;-59
2021/11/07 13:36:16;;;;;;;24.73;4.83;;;;;;;17.74;100.00;101458.81;5072594;28;20384;-60
2021/11/07 13:38:46;;;;;;;20.43;2.97;;;;;;;17.56;100.00;101445.31;5070881;28;20270;-58
2021/11/07 13:41:18;;;;;;;11.80;3.20;;;;;;;18.45;100.00;101430.31;5071194;28;20322;-57
2021/11/07 13:43:47;;;;;;;14.83;2.97;;;;;;;19.58;86.54;101431.94;5070835;28;20346;-60
2021/11/07 13:46:13;;;;;;;12.03;2.30;;;;;;;18.74;94.88;101428.56;5074670;28;20289;-59
2021/11/07 13:48:39;;;;;;;;;;;;;;;19.11;94.12;101432.06;5075383;28;20286;-56
2021/11/07 13:51:06;;;;;;;18.83;2.90;;;;;;;19.28;94.86;101429.47;5071697;28;20048;-59
2021/11/07 13:53:37;;;;;;;29.07;3.93;;;;;;;19.20;92.53;101425.22;5071516;28;20473;-59